»·PEaware :: N6262K KVNY-KTOA

N6262K :: KVNY-KTOA

FLIGHT INFORMATION

Flight Status: Arrived
Operator: Privately registered:
United States
More flights under this callsign
Pilot: Judson K. (15650)
Aircraft: PIPER PA-28 CHEROKEE ARCHER
(PA28)
More flights by this aircraft type
Origin: KVNY Van Nuys
United States
Destination: KTOA Zamperini
United States
More flights between these airports :: More routes between these airports
Route: +
File this flight plan on PilotEdge
Remarks:
Altitude:
(Current/Filed)
5,500ft
Speed:
(Current/Filed)
0kts
Departed: 04-Dec-17 04:47 PM
Arrived: 04-Dec-17 05:19 PM
Distance/Time
Traveled:
26nm/0:32
Distance/Time
To Go:
Arrived

Flight Plot

Page will automatically refresh every two minutes.


Map Options




Map Legend


Flown Route
Filed Route
Departure Airport
Arrival Airport
Navaid (VOR, NDB)
Fix

Horizontal Profiles

Position Reports

Time Latitude Longitude Heading Altitude Ground
Speed
04-Dec-17 16:28 34.205923 -118.493613 91 769ft 0kts
04-Dec-17 16:29 34.205923 -118.493613 91 769ft 0kts
04-Dec-17 16:30 34.205923 -118.493613 91 769ft 0kts
04-Dec-17 16:31 34.205923 -118.493613 91 769ft 0kts
04-Dec-17 16:32 34.205923 -118.493613 91 769ft 0kts
04-Dec-17 16:33 34.205923 -118.493613 91 769ft 0kts
04-Dec-17 16:34 34.205923 -118.493613 91 769ft 0kts
04-Dec-17 16:35 34.205923 -118.493613 91 769ft 0kts
04-Dec-17 16:36 34.205923 -118.493608 91 769ft 0kts
04-Dec-17 16:37 34.206592 -118.491802 91 771ft 6kts
04-Dec-17 16:38 34.206588 -118.491614 89 771ft 0kts
04-Dec-17 16:39 34.206588 -118.491614 89 771ft 0kts
04-Dec-17 16:40 34.206588 -118.491614 89 771ft 0kts
04-Dec-17 16:41 34.206588 -118.491614 89 771ft 0kts
04-Dec-17 16:42 34.206588 -118.491614 89 771ft 0kts
04-Dec-17 16:43 34.206588 -118.491614 89 771ft 0kts
04-Dec-17 16:44 34.206588 -118.491614 89 771ft 0kts
04-Dec-17 16:45 34.206588 -118.491614 89 771ft 0kts
04-Dec-17 16:46 34.207469 -118.491303 355 772ft 10kts
04-Dec-17 16:47 34.210784 -118.491623 355 779ft 15kts
04-Dec-17 16:48 34.215702 -118.492169 356 793ft 16kts
04-Dec-17 16:49 34.219093 -118.492293 122 799ft 0kts
04-Dec-17 16:50 34.219093 -118.492293 122 799ft 0kts
04-Dec-17 16:51 34.218699 -118.492154 78 798ft 0kts
04-Dec-17 16:52 34.212612 -118.490530 174 836ft 83kts
04-Dec-17 16:53 34.188027 -118.488190 177 1898ft 94kts
04-Dec-17 16:54 34.161207 -118.491256 195 3020ft 99kts
04-Dec-17 16:55 34.135830 -118.506926 212 4020ft 103kts
04-Dec-17 16:56 34.109209 -118.516708 160 5000ft 102kts
04-Dec-17 16:57 34.079961 -118.503050 157 5524ft 122kts
04-Dec-17 16:58 34.047404 -118.487512 158 5450ft 132kts
04-Dec-17 16:59 34.012780 -118.470750 157 5395ft 135kts
04-Dec-17 17:00 33.978371 -118.454235 154 5461ft 128kts
04-Dec-17 17:01 33.945890 -118.438485 154 5501ft 123kts
04-Dec-17 17:02 33.918219 -118.416709 135 5493ft 118kts
04-Dec-17 17:03 33.894438 -118.389516 135 5482ft 114kts
04-Dec-17 17:04 33.871284 -118.363327 136 5408ft 118kts
04-Dec-17 17:05 33.847449 -118.346331 165 4045ft 97kts
04-Dec-17 17:06 33.821929 -118.340642 146 2524ft 92kts
04-Dec-17 17:07 33.803289 -118.322600 140 1233ft 79kts
04-Dec-17 17:08 33.788870 -118.312560 260 487ft 75kts
04-Dec-17 17:09 33.799340 -118.332397 308 148ft 65kts
04-Dec-17 17:10 33.812368 -118.351984 310 546ft 99kts
04-Dec-17 17:11 33.831093 -118.349749 111 1167ft 95kts
04-Dec-17 17:12 33.812499 -118.328855 138 1310ft 92kts
04-Dec-17 17:13 33.795529 -118.319599 223 632ft 80kts
04-Dec-17 17:14 33.803968 -118.339341 311 96ft 74kts
04-Dec-17 17:15 33.822481 -118.360025 33 810ft 101kts
04-Dec-17 17:16 33.821952 -118.336956 134 1103ft 93kts
04-Dec-17 17:17 33.804041 -118.315636 135 831ft 85kts
04-Dec-17 17:18 33.794881 -118.325942 308 255ft 72kts
04-Dec-17 17:19 33.806581 -118.343497 310 186ft 88kts
04-Dec-17 17:20 33.827602 -118.356611 41 1025ft 110kts
04-Dec-17 17:21 33.816644 -118.330979 139 1169ft 100kts
04-Dec-17 17:22 33.797342 -118.311213 160 689ft 74kts
04-Dec-17 17:23 33.796509 -118.328352 310 205ft 70kts
04-Dec-17 17:24 33.805378 -118.342128 295 94ft 23kts
04-Dec-17 17:25 33.805126 -118.345212 126 94ft 6kts
04-Dec-17 17:26 33.802574 -118.342593 216 103ft 7kts
04-Dec-17 17:27 33.801886 -118.341831 30 104ft 0kts
04-Dec-17 17:28 33.801885 -118.341831 30 104ft 0kts
04-Dec-17 17:29 33.801885 -118.341831 30 104ft 0kts
04-Dec-17 17:30 33.801885 -118.341831 30 104ft 0kts
04-Dec-17 17:31 33.801885 -118.341831 30 104ft 0kts
04-Dec-17 17:32 33.801885 -118.341831 30 104ft 0kts
04-Dec-17 17:33 33.801885 -118.341831 30 104ft 0kts
04-Dec-17 17:34 33.801886 -118.341831 30 104ft 0kts
04-Dec-17 17:35 33.801886 -118.341831 30 104ft 0kts
04-Dec-17 17:36 33.801886 -118.341831 30 104ft 0kts
04-Dec-17 17:37 33.801886 -118.341831 30 104ft 0kts
04-Dec-17 17:38 33.801886 -118.341831 30 104ft 0kts
04-Dec-17 17:39 33.801886 -118.341831 30 104ft 0kts

Navigation Log

Ident Type
1. KVNY Airport
2. KTOA Airport